TimeCDT,TemperatureF,Dew PointF,Humidity,Sea Level PressureIn,VisibilityMPH,Wind Direction,Wind SpeedMPH,Gust SpeedMPH,PrecipitationIn,Events,Conditions,WindDirDegrees,DateUTC
12:53 AM,59.0,48.0,67,29.85,10.0,ENE,4.6,-,N/A,,Overcast,70,2013-03-22 05:53:00
1:53 AM,57.9,48.9,72,29.83,10.0,SE,3.5,-,N/A,,Overcast,130,2013-03-22 06:53:00
2:10 AM,57.2,50.0,77,29.82,10.0,Variable,3.5,-,N/A,,Overcast,0,2013-03-22 07:10:00
2:17 AM,57.2,50.0,77,29.81,10.0,Variable,6.9,-,N/A,,Overcast,0,2013-03-22 07:17:00
2:46 AM,57.2,51.8,82,29.79,10.0,SSE,8.1,-,N/A,,Scattered Clouds,160,2013-03-22 07:46:00
2:53 AM,57.0,52.0,83,29.78,10.0,SSE,5.8,-,N/A,,Partly Cloudy,150,2013-03-22 07:53:00
3:45 AM,57.2,53.6,88,29.76,10.0,Variable,4.6,-,N/A,,Mostly Cloudy,0,2013-03-22 08:45:00
3:53 AM,57.9,54.0,87,29.76,10.0,Variable,4.6,-,N/A,,Mostly Cloudy,0,2013-03-22 08:53:00
4:53 AM,59.0,55.0,87,29.75,10.0,SE,4.6,-,N/A,,Overcast,140,2013-03-22 09:53:00
5:04 AM,60.8,55.4,82,29.75,10.0,Variable,4.6,-,N/A,,Overcast,0,2013-03-22 10:04:00
5:11 AM,60.8,55.4,82,29.75,10.0,SSE,6.9,-,N/A,,Overcast,150,2013-03-22 10:11:00
5:53 AM,61.0,57.0,87,29.76,10.0,SSE,5.8,-,N/A,,Overcast,150,2013-03-22 10:53:00
6:53 AM,61.0,57.9,90,29.77,10.0,ESE,5.8,-,N/A,,Overcast,120,2013-03-22 11:53:00
7:53 AM,62.1,57.9,86,29.81,8.0,East,4.6,-,N/A,,Overcast,100,2013-03-22 12:53:00
8:53 AM,63.0,60.1,90,29.82,6.0,Variable,3.5,-,0.00,Rain,Light Rain,0,2013-03-22 13:53:00
9:53 AM,64.9,61.0,87,29.82,7.0,SSE,5.8,-,0.00,,Overcast,150,2013-03-22 14:53:00
10:53 AM,69.1,64.0,84,29.82,9.0,SSE,12.7,17.3,N/A,,Overcast,160,2013-03-22 15:53:00
11:18 AM,69.8,64.4,83,29.83,10.0,South,6.9,-,N/A,,Overcast,170,2013-03-22 16:18:00
11:53 AM,71.1,64.9,81,29.83,9.0,South,9.2,-,N/A,,Overcast,180,2013-03-22 16:53:00
12:46 PM,73.4,66.2,78,29.82,9.0,South,6.9,-,N/A,,Overcast,180,2013-03-22 17:46:00
12:53 PM,73.0,66.0,79,29.81,10.0,South,8.1,-,N/A,,Overcast,170,2013-03-22 17:53:00
1:35 PM,73.4,66.2,78,29.79,10.0,South,12.7,-,0.00,,Overcast,180,2013-03-22 18:35:00
1:53 PM,73.9,66.9,79,29.79,10.0,South,11.5,21.9,0.00,,Overcast,190,2013-03-22 18:53:00
2:11 PM,75.2,68.0,78,29.78,10.0,South,10.4,18.4,N/A,,Mostly Cloudy,180,2013-03-22 19:11:00
2:53 PM,75.9,66.9,74,29.75,10.0,South,10.4,17.3,N/A,,Overcast,180,2013-03-22 19:53:00
3:53 PM,78.1,68.0,71,29.73,10.0,South,10.4,-,N/A,,Mostly Cloudy,170,2013-03-22 20:53:00
4:09 PM,77.0,66.2,69,29.73,10.0,South,10.4,-,N/A,,Mostly Cloudy,180,2013-03-22 21:09:00
4:16 PM,78.8,68.0,69,29.73,10.0,South,10.4,-,N/A,,Mostly Cloudy,170,2013-03-22 21:16:00
4:34 PM,77.0,66.2,69,29.73,10.0,South,12.7,-,N/A,,Mostly Cloudy,190,2013-03-22 21:34:00
4:53 PM,77.0,66.9,71,29.73,10.0,South,11.5,-,N/A,,Partly Cloudy,180,2013-03-22 21:53:00
5:53 PM,77.0,66.0,69,29.74,10.0,SSW,11.5,-,N/A,,Scattered Clouds,200,2013-03-22 22:53:00
6:53 PM,73.9,66.0,76,29.74,10.0,South,5.8,-,N/A,,Clear,170,2013-03-22 23:53:00
7:53 PM,71.1,66.9,87,29.76,10.0,South,5.8,-,N/A,,Partly Cloudy,180,2013-03-23 00:53:00
8:25 PM,69.8,66.2,88,29.78,10.0,South,5.8,-,N/A,,Scattered Clouds,180,2013-03-23 01:25:00
8:38 PM,69.8,66.2,88,29.78,9.0,South,5.8,-,N/A,,Mostly Cloudy,170,2013-03-23 01:38:00
8:53 PM,70.0,66.9,90,29.79,8.0,South,8.1,-,N/A,,Overcast,180,2013-03-23 01:53:00
9:44 PM,69.8,66.2,88,29.81,9.0,South,4.6,-,N/A,,Overcast,180,2013-03-23 02:44:00
9:53 PM,70.0,66.9,90,29.81,9.0,South,5.8,-,N/A,,Overcast,170,2013-03-23 02:53:00
10:53 PM,70.0,66.9,90,29.81,9.0,SSE,3.5,-,N/A,,Overcast,150,2013-03-23 03:53:00
11:12 PM,69.8,66.2,88,29.81,8.0,SSE,3.5,-,N/A,,Overcast,160,2013-03-23 04:12:00
11:21 PM,69.8,66.2,88,29.81,7.0,South,4.6,-,N/A,,Overcast,180,2013-03-23 04:21:00
11:53 PM,70.0,66.9,90,29.81,3.0,Variable,4.6,-,N/A,,Overcast,0,2013-03-23 04:53:00